Time;durP1;ratioP1;P1;durP2;ratioP2;P2;SDS_P1;SDS_P2;PMS_P1;PMS_P2;Temp;Humidity;BMP_temperature;BMP_pressure;BME280_temperature;BME280_humidity;BME280_pressure;Samples;Min_cycle;Max_cycle;Signal;HPM_P1;HPM_P2
2022/06/19 00:01:45;;;;;;;6.28;3.60;;;;;;;21.52;57.82;100693.00;5033476;28;20788;-53
2022/06/19 00:04:17;;;;;;;4.07;2.92;;;;;;;21.49;57.88;100678.19;5032915;28;20060;-53
2022/06/19 00:06:45;;;;;;;8.20;3.90;;;;;;;21.48;58.13;100675.63;5032092;28;20061;-54
2022/06/19 00:09:16;;;;;;;6.03;3.30;;;;;;;21.47;58.16;100671.31;5032635;28;20111;-52
2022/06/19 00:11:47;;;;;;;6.07;3.28;;;;;;;21.42;58.36;100667.13;5032894;28;20458;-52
2022/06/19 00:14:15;;;;;;;5.03;2.97;;;;;;;21.38;58.52;100676.16;5033180;28;20072;-50
2022/06/19 00:16:45;;;;;;;6.78;3.60;;;;;;;21.36;58.54;100677.16;5032518;28;20050;-52
2022/06/19 00:19:22;;;;;;;5.25;3.20;;;;;;;21.34;58.67;100666.69;5032758;28;20112;-50
2022/06/19 00:21:52;;;;;;;6.05;3.53;;;;;;;21.33;58.79;100666.75;5023600;28;20060;-51
2022/06/19 00:24:29;;;;;;;5.60;3.03;;;;;;;21.33;58.67;100672.91;5012996;28;20046;-50
2022/06/19 00:26:58;;;;;;;7.60;3.10;;;;;;;21.31;58.89;100664.19;5014181;28;20057;-50
2022/06/19 00:29:28;;;;;;;4.40;3.38;;;;;;;21.28;58.94;100685.44;5032378;28;20046;-54
2022/06/19 00:31:59;;;;;;;5.85;3.50;;;;;;;21.29;58.77;100687.16;5032878;28;20068;-51
2022/06/19 00:34:29;;;;;;;6.30;3.40;;;;;;;21.29;58.95;100681.03;5032174;28;20055;-50
2022/06/19 00:37:01;;;;;;;8.45;3.25;;;;;;;21.29;59.01;100676.59;5032655;28;20128;-51
2022/06/19 00:39:39;;;;;;;5.50;3.70;;;;;;;21.28;59.13;100676.69;5031989;28;20048;-51
2022/06/19 00:42:14;;;;;;;4.40;3.47;;;;;;;21.26;58.96;100676.78;5032624;28;20057;-50
2022/06/19 00:44:42;;;;;;;4.68;3.30;;;;;;;21.26;59.18;100670.66;5032269;28;20078;-51
2022/06/19 00:47:19;;;;;;;7.45;3.65;;;;;;;21.25;59.08;100669.81;5032274;28;20053;-52
2022/06/19 00:49:55;;;;;;;9.85;3.17;;;;;;;21.25;59.42;100663.69;5031871;28;20057;-53
2022/06/19 00:52:26;;;;;;;4.57;3.15;;;;;;;21.21;59.34;100673.50;5032521;28;20045;-54
2022/06/19 00:55:06;;;;;;;6.63;3.22;;;;;;;21.22;59.41;100674.34;5031801;28;20060;-53
2022/06/19 00:57:41;;;;;;;4.72;3.42;;;;;;;21.20;59.50;100674.44;5032152;28;20478;-51
2022/06/19 01:00:13;;;;;;;5.18;2.97;;;;;;;21.18;59.57;100681.56;5032490;28;20132;-50
2022/06/19 01:02:50;;;;;;;5.72;3.60;;;;;;;21.17;59.55;100685.16;5032308;28;20072;-54
2022/06/19 01:05:28;;;;;;;3.92;2.90;;;;;;;21.15;59.74;100694.91;5031980;28;20482;-50
2022/06/19 01:07:59;;;;;;;6.30;3.20;;;;;;;21.10;59.56;100702.22;5012436;28;20455;-51
2022/06/19 01:10:35;;;;;;;7.90;3.60;;;;;;;21.11;59.83;100719.72;5012601;28;20065;-53
2022/06/19 01:13:03;;;;;;;14.10;4.18;;;;;;;21.07;59.90;100713.78;5012676;28;20127;-51
2022/06/19 01:15:32;;;;;;;4.03;2.80;;;;;;;21.06;60.15;100703.31;5012794;28;20050;-51
2022/06/19 01:18:04;;;;;;;16.00;4.05;;;;;;;21.05;60.07;100714.78;5021686;28;20060;-53
2022/06/19 01:20:34;;;;;;;8.02;3.72;;;;;;;21.03;60.09;100714.00;5031899;28;20060;-53
2022/06/19 01:23:14;;;;;;;6.78;3.35;;;;;;;21.02;59.97;100709.69;5032022;28;20061;-50
2022/06/19 01:25:50;;;;;;;6.28;3.88;;;;;;;20.99;60.05;100704.56;5030921;28;20397;-50
2022/06/19 01:31:13;;;;;;;5.53;3.45;;;;;;;20.98;59.88;100702.88;5032027;28;20107;-50
2022/06/19 01:33:48;;;;;;;7.80;3.80;;;;;;;20.96;60.10;100687.13;5031608;28;20580;-50
2022/06/19 01:36:22;;;;;;;7.15;4.00;;;;;;;20.96;60.14;100683.66;5033425;28;20112;-50
2022/06/19 01:38:55;;;;;;;6.43;3.58;;;;;;;20.93;60.20;100679.38;5035680;28;20056;-54
2022/06/19 01:41:37;;;;;;;4.70;3.53;;;;;;;20.92;60.29;100676.84;5035889;28;20056;-54
2022/06/19 01:44:08;;;;;;;6.75;3.45;;;;;;;20.89;60.44;100684.91;5034659;28;20065;-51
2022/06/19 01:46:38;;;;;;;5.97;3.55;;;;;;;20.87;60.54;100689.41;5033838;28;20405;-51
2022/06/19 01:49:05;;;;;;;5.70;4.10;;;;;;;20.84;60.63;100684.28;5034225;28;20385;-53
2022/06/19 01:51:34;;;;;;;6.63;3.80;;;;;;;20.83;60.69;100682.59;5034147;28;20053;-52
2022/06/19 01:54:11;;;;;;;6.50;3.55;;;;;;;20.79;60.63;100687.97;5033879;28;20050;-50
2022/06/19 01:56:41;;;;;;;4.40;3.38;;;;;;;20.77;60.88;100686.34;5034395;28;20134;-50
2022/06/19 01:59:12;;;;;;;7.45;3.80;;;;;;;20.74;60.92;100690.00;5034441;28;20041;-50
2022/06/19 02:01:42;;;;;;;5.70;4.07;;;;;;;20.71;61.07;100687.53;5033902;28;20508;-52
2022/06/19 02:04:13;;;;;;;5.10;3.33;;;;;;;20.67;60.97;100699.16;5033883;28;20053;-50
2022/06/19 02:06:49;;;;;;;8.88;3.53;;;;;;;20.64;61.17;100688.78;5033664;28;20049;-50
2022/06/19 02:09:22;;;;;;;4.10;3.25;;;;;;;20.61;61.35;100683.66;5034803;28;20079;-51
2022/06/19 02:11:58;;;;;;;5.57;3.70;;;;;;;20.57;61.44;100682.09;5034513;28;20049;-54
2022/06/19 02:14:29;;;;;;;4.97;3.40;;;;;;;20.52;61.37;100676.22;5025869;28;20104;-51
2022/06/19 02:17:00;;;;;;;5.65;3.80;;;;;;;20.49;61.52;100665.84;5034569;28;20136;-51
2022/06/19 02:19:28;;;;;;;5.00;3.65;;;;;;;20.46;61.88;100653.69;5034567;28;20115;-50
2022/06/19 02:21:58;;;;;;;4.65;3.42;;;;;;;20.43;61.94;100647.72;5034113;28;20053;-52
2022/06/19 02:24:28;;;;;;;5.55;4.30;;;;;;;20.39;62.00;100647.03;5034566;28;20058;-52
2022/06/19 02:27:07;;;;;;;7.32;3.53;;;;;;;20.39;61.95;100646.16;5034571;28;20045;-52
2022/06/19 02:29:36;;;;;;;5.30;3.97;;;;;;;20.34;62.20;100658.69;5033915;28;20053;-51
2022/06/19 02:32:12;;;;;;;5.53;3.67;;;;;;;20.31;62.27;100653.59;5034184;28;20075;-53
2022/06/19 02:34:44;;;;;;;10.88;3.88;;;;;;;20.26;62.29;100650.28;5034111;28;20062;-51
2022/06/19 02:37:17;;;;;;;6.93;3.72;;;;;;;20.22;62.38;100657.50;5034048;28;20055;-54
2022/06/19 02:39:57;;;;;;;7.65;4.25;;;;;;;20.18;62.26;100664.69;5033916;28;20132;-54
2022/06/19 02:42:40;;;;;;;6.00;4.15;;;;;;;20.13;62.29;100671.97;5034200;28;20045;-54
2022/06/19 02:45:17;;;;;;;5.35;3.78;;;;;;;20.07;62.51;100664.38;4992726;28;1211865;-52
2022/06/19 02:47:48;;;;;;;5.53;3.83;;;;;;;20.03;62.60;100662.81;5034681;28;20060;-50
2022/06/19 02:50:17;;;;;;;5.93;4.43;;;;;;;19.99;62.80;100666.53;5034528;28;20406;-50
2022/06/19 02:52:54;;;;;;;5.60;3.97;;;;;;;19.95;62.98;100670.22;5034749;28;20585;-50
2022/06/19 02:55:22;;;;;;;6.07;4.40;;;;;;;19.90;62.89;100664.34;5034247;28;20145;-50
2022/06/19 02:57:53;;;;;;;5.47;4.25;;;;;;;19.88;63.03;100666.19;5034766;28;20045;-50
2022/06/19 03:00:25;;;;;;;6.03;4.40;;;;;;;19.84;63.17;100664.63;5034451;28;20053;-51
2022/06/19 03:03:02;;;;;;;8.05;4.85;;;;;;;19.81;63.18;100670.88;5034863;28;20080;-53
2022/06/19 03:05:31;;;;;;;8.77;4.55;;;;;;;19.77;63.30;100668.44;5034495;28;20055;-54
2022/06/19 03:07:59;;;;;;;6.20;4.70;;;;;;;19.76;63.50;100666.75;5034794;28;20168;-50
2022/06/19 03:10:30;;;;;;;7.82;4.70;;;;;;;19.74;63.49;100673.84;5034016;28;20053;-50
2022/06/19 03:13:01;;;;;;;6.40;4.15;;;;;;;19.72;63.62;100665.19;5034340;28;20095;-50
2022/06/19 03:15:29;;;;;;;7.07;4.65;;;;;;;19.73;63.69;100661.63;5034209;28;20076;-50
2022/06/19 03:18:00;;;;;;;8.30;5.03;;;;;;;19.73;63.80;100672.16;5034363;28;20490;-51
2022/06/19 03:20:36;;;;;;;7.38;5.05;;;;;;;19.73;63.95;100672.16;5034940;28;20052;-50
2022/06/19 03:23:13;;;;;;;5.07;4.35;;;;;;;19.74;64.03;100677.34;5033020;28;20358;-50
2022/06/19 03:25:43;;;;;;;7.05;4.15;;;;;;;19.75;64.10;100670.31;5034424;28;20053;-50
2022/06/19 03:30:56;;;;;;;11.13;5.45;;;;;;;19.81;64.10;100675.31;5034141;28;20068;-50
2022/06/19 03:33:32;;;;;;;7.10;4.90;;;;;;;19.87;63.92;100695.19;5034681;28;20049;-52
2022/06/19 03:36:03;;;;;;;7.40;4.90;;;;;;;19.92;64.34;100688.78;5034474;28;20053;-53
2022/06/19 03:38:34;;;;;;;5.45;4.50;;;;;;;19.96;64.09;100679.81;5033974;28;20490;-54
2022/06/19 03:43:48;;;;;;;5.53;4.30;;;;;;;20.12;63.92;100672.88;5033476;28;20061;-51
2022/06/19 03:46:22;;;;;;;5.88;3.97;;;;;;;20.21;63.96;100662.84;5033713;28;20630;-52
2022/06/19 03:49:00;;;;;;;7.68;4.72;;;;;;;20.33;63.86;100664.88;5033811;28;20060;-51
2022/06/19 03:51:31;;;;;;;8.43;4.10;;;;;;;20.43;63.60;100663.53;5033545;28;20057;-52
2022/06/19 03:54:01;;;;;;;9.70;5.57;;;;;;;20.51;63.24;100661.34;5033549;28;20128;-50
2022/06/19 03:56:33;;;;;;;6.28;4.40;;;;;;;20.61;63.03;100661.75;5033539;28;20049;-52
2022/06/19 03:59:04;;;;;;;7.10;4.15;;;;;;;20.70;62.53;100667.38;5033112;28;20122;-52
2022/06/19 04:01:42;;;;;;;9.48;4.47;;;;;;;20.82;62.33;100672.97;5033484;28;20049;-54
2022/06/19 04:04:11;;;;;;;5.05;3.80;;;;;;;20.94;62.04;100672.34;5034027;28;20053;-53
2022/06/19 04:06:49;;;;;;;10.68;3.58;;;;;;;21.08;61.60;100664.56;5032961;28;20053;-51
2022/06/19 04:09:18;;;;;;;6.82;3.97;;;;;;;21.25;61.19;100669.81;5033390;28;20057;-51
2022/06/19 04:11:45;;;;;;;4.55;2.95;;;;;;;21.38;60.58;100655.06;5033304;28;20541;-52
2022/06/19 04:14:18;;;;;;;4.82;3.08;;;;;;;21.53;60.25;100663.91;5032987;28;20061;-54
2022/06/19 04:16:48;;;;;;;5.65;3.60;;;;;;;21.64;59.95;100665.94;5033376;28;20060;-54
2022/06/19 04:19:27;;;;;;;5.93;3.40;;;;;;;21.78;59.36;100665.19;5033156;28;20057;-51
2022/06/19 04:21:56;;;;;;;4.63;3.30;;;;;;;21.91;58.93;100656.50;5032721;28;20057;-54
2022/06/19 04:24:28;;;;;;;5.72;3.17;;;;;;;22.03;58.68;100652.34;5033360;28;20135;-54
2022/06/19 04:26:58;;;;;;;6.78;3.35;;;;;;;22.17;58.33;100659.47;5032023;28;20054;-51
2022/06/19 04:29:29;;;;;;;4.68;3.30;;;;;;;22.31;57.68;100647.16;5032941;28;20368;-51
2022/06/19 04:31:56;;;;;;;4.45;2.67;;;;;;;22.46;57.13;100640.16;5032981;28;20061;-50
2022/06/19 04:34:33;;;;;;;5.25;2.50;;;;;;;22.60;56.65;100636.69;5032204;28;20053;-51
2022/06/19 04:37:02;;;;;;;4.03;2.95;;;;;;;22.70;56.41;100642.28;5032913;28;20057;-50
2022/06/19 04:39:31;;;;;;;4.72;2.78;;;;;;;22.83;56.26;100645.91;5032747;28;20080;-50
2022/06/19 04:41:59;;;;;;;3.60;2.90;;;;;;;22.94;55.79;100646.97;5032527;28;20524;-51
2022/06/19 04:44:38;;;;;;;4.55;3.20;;;;;;;23.08;55.21;100646.13;5032014;28;20531;-50
2022/06/19 04:47:12;;;;;;;4.03;3.10;;;;;;;23.18;55.05;100641.97;5032810;28;20111;-50
2022/06/19 04:49:41;;;;;;;5.13;2.38;;;;;;;23.32;54.62;100640.25;5032872;28;20053;-50
2022/06/19 04:52:09;;;;;;;5.93;2.67;;;;;;;23.45;54.35;100638.56;5032741;28;20050;-50
2022/06/19 04:54:41;;;;;;;4.93;2.63;;;;;;;23.56;53.75;100633.47;5032341;28;20445;-50
2022/06/19 04:57:09;;;;;;;4.65;3.17;;;;;;;23.66;53.62;100628.41;5032176;28;20064;-52
2022/06/19 04:59:45;;;;;;;3.75;2.53;;;;;;;23.84;53.09;100621.94;5032290;28;20502;-54
2022/06/19 05:02:12;;;;;;;4.60;2.70;;;;;;;23.98;52.68;100623.69;5032019;28;20103;-55
2022/06/19 05:04:43;;;;;;;3.70;2.58;;;;;;;24.16;52.26;100611.88;5032443;28;20079;-54
2022/06/19 05:07:13;;;;;;;4.45;2.45;;;;;;;24.36;51.40;100607.91;5017310;28;20154;-53
2022/06/19 05:09:44;;;;;;;3.92;2.60;;;;;;;24.53;50.39;100595.25;5018916;28;20049;-51
2022/06/19 05:12:15;;;;;;;4.53;2.08;;;;;;;24.71;49.56;100594.91;5028964;28;20394;-51
2022/06/19 05:15:04;;;;;;;3.45;2.33;;;;;;;24.89;48.48;100601.59;5030800;28;20081;-51
2022/06/19 05:17:35;;;;;;;2.95;2.10;;;;;;;25.06;48.24;100601.31;5031456;28;20053;-51
2022/06/19 05:20:14;;;;;;;7.28;2.60;;;;;;;25.24;47.82;100606.25;5031430;28;20053;-51
2022/06/19 05:22:45;;;;;;;4.85;2.05;;;;;;;25.38;47.08;100604.28;5017252;28;20125;-52
2022/06/19 05:25:16;;;;;;;4.88;2.30;;;;;;;25.52;46.69;100611.28;5032427;28;20042;-50
2022/06/19 05:27:44;;;;;;;5.00;2.10;;;;;;;25.60;46.24;100603.59;5032225;28;20385;-51
2022/06/19 05:30:15;;;;;;;4.22;2.42;;;;;;;25.73;46.03;100599.13;5031972;28;20045;-50
2022/06/19 05:32:45;;;;;;;5.57;2.30;;;;;;;25.88;45.45;100602.44;5031487;28;20130;-50
2022/06/19 05:35:14;;;;;;;4.18;2.28;;;;;;;25.97;45.15;100590.28;5032203;28;20193;-53
2022/06/19 05:37:45;;;;;;;4.28;2.15;;;;;;;26.08;45.21;100587.69;5031177;28;20058;-53
2022/06/19 05:40:14;;;;;;;2.65;1.60;;;;;;;26.21;44.45;100584.97;5031975;28;20103;-51
2022/06/19 05:42:44;;;;;;;7.13;2.55;;;;;;;26.30;44.70;100577.13;5031679;28;20433;-52
2022/06/19 05:45:17;;;;;;;3.53;2.17;;;;;;;26.45;44.66;100575.13;5031181;28;20057;-51
2022/06/19 05:47:49;;;;;;;7.57;2.33;;;;;;;26.60;44.26;100575.78;5031248;28;20053;-54
2022/06/19 05:50:18;;;;;;;2.78;2.05;;;;;;;26.74;44.09;100572.88;5034147;28;20064;-51
2022/06/19 05:52:50;;;;;;;4.63;2.33;;;;;;;26.86;43.56;100558.63;5030904;28;20132;-53
2022/06/19 05:55:17;;;;;;;3.72;2.08;;;;;;;26.91;43.75;100560.91;5031362;28;20477;-53
2022/06/19 05:57:47;;;;;;;4.30;2.38;;;;;;;26.99;43.42;100563.84;5029820;28;20041;-51
2022/06/19 06:00:24;;;;;;;3.65;2.47;;;;;;;27.08;42.81;100562.28;5031035;28;20462;-51
2022/06/19 06:02:54;;;;;;;3.17;1.95;;;;;;;27.13;43.10;100576.06;5031773;28;20053;-54
2022/06/19 06:05:29;;;;;;;2.75;1.95;;;;;;;27.20;42.68;100577.25;5032178;28;20057;-51
2022/06/19 06:08:00;;;;;;;3.60;2.00;;;;;;;27.23;42.17;100572.53;5016776;28;20049;-51
2022/06/19 06:10:32;;;;;;;3.00;2.20;;;;;;;27.26;41.86;100560.81;5031301;28;20547;-51
2022/06/19 06:12:59;;;;;;;4.07;2.08;;;;;;;27.30;41.96;100551.59;5031189;28;20053;-52
2022/06/19 06:15:43;;;;;;;4.97;1.85;;;;;;;27.38;40.59;100559.81;5031370;28;20049;-51
2022/06/19 06:18:13;;;;;;;3.65;1.80;;;;;;;27.41;41.12;100556.03;5031929;28;20085;-51
2022/06/19 06:20:42;;;;;;;2.42;1.52;;;;;;;27.49;40.78;100565.09;5032037;28;20045;-51
2022/06/19 06:23:12;;;;;;;2.58;1.80;;;;;;;27.57;40.94;100559.97;5034253;28;20199;-51
2022/06/19 06:25:44;;;;;;;3.97;1.95;;;;;;;27.62;40.91;100565.00;5036028;28;20485;-50
2022/06/19 06:28:12;;;;;;;3.88;1.85;;;;;;;27.74;40.28;100566.63;5034995;28;20041;-51
2022/06/19 06:30:54;;;;;;;9.90;2.33;;;;;;;27.83;39.53;100575.69;5035856;28;20130;-50
2022/06/19 06:33:24;;;;;;;4.75;2.15;;;;;;;27.94;39.86;100567.63;5035025;28;20045;-50
2022/06/19 06:35:55;;;;;;;4.25;2.33;;;;;;;28.10;39.79;100562.75;5036051;28;20198;-51
2022/06/19 06:38:38;;;;;;;5.38;1.90;;;;;;;28.31;39.22;100559.25;5035419;28;20045;-51
2022/06/19 06:41:07;;;;;;;4.53;2.13;;;;;;;28.49;38.78;100563.00;5035539;28;20148;-50
2022/06/19 06:43:39;;;;;;;3.45;1.95;;;;;;;28.63;38.59;100562.69;5035637;28;20084;-53
2022/06/19 06:46:24;;;;;;;2.28;1.70;;;;;;;28.80;37.76;100564.72;5035781;28;20111;-53
2022/06/19 06:48:56;;;;;;;3.47;1.70;;;;;;;28.90;37.65;100557.63;5035121;28;20367;-51
2022/06/19 06:51:28;;;;;;;5.03;1.75;;;;;;;28.99;37.35;100560.47;5035759;28;20068;-52
2022/06/19 06:53:59;;;;;;;2.90;1.80;;;;;;;29.09;37.12;100548.00;5035410;28;20153;-54
2022/06/19 06:56:51;;;;;;;4.60;1.98;;;;;;;29.20;36.01;100553.25;5034843;28;20504;-51
2022/06/19 06:59:19;;;;;;;5.70;2.00;;;;;;;29.25;36.37;100545.66;5035576;28;20179;-51
2022/06/19 07:01:50;;;;;;;3.75;1.67;;;;;;;29.32;36.25;100541.47;5034086;28;20053;-51
2022/06/19 07:04:21;;;;;;;3.50;1.67;;;;;;;29.41;36.47;100551.31;5035382;28;20103;-55
2022/06/19 07:06:52;;;;;;;3.60;2.17;;;;;;;29.41;36.40;100553.97;5035399;28;20072;-54
2022/06/19 07:12:03;;;;;;;3.95;2.20;;;;;;;29.42;36.37;100563.69;5035263;28;20049;-55
2022/06/19 07:14:34;;;;;;;6.10;2.00;;;;;;;29.42;36.59;100579.69;5034957;28;20053;-54
2022/06/19 07:17:05;;;;;;;4.53;1.85;;;;;;;29.53;36.09;100581.44;5035188;28;20088;-54
2022/06/19 07:19:34;;;;;;;3.58;2.15;;;;;;;29.67;35.96;100588.22;5034931;28;20132;-53
2022/06/19 07:22:04;;;;;;;4.30;1.77;;;;;;;29.82;35.70;100586.81;5034385;28;20104;-54
2022/06/19 07:24:32;;;;;;;3.53;1.80;;;;;;;29.89;35.65;100585.25;5034562;28;20425;-55
2022/06/19 07:27:03;;;;;;;4.82;1.90;;;;;;;29.90;35.45;100580.75;5034988;28;20049;-51
2022/06/19 07:29:33;;;;;;;4.22;1.95;;;;;;;29.92;35.66;100576.13;5034705;28;20095;-51
2022/06/19 07:32:18;;;;;;;4.47;2.00;;;;;;;29.95;35.03;100578.50;5034993;28;20088;-51
2022/06/19 07:34:45;;;;;;;4.45;1.90;;;;;;;29.94;35.67;100569.66;5033595;28;20057;-53
2022/06/19 07:37:14;;;;;;;3.92;1.80;;;;;;;30.02;35.52;100561.81;5034498;28;20053;-52
2022/06/19 07:39:42;;;;;;;4.00;1.92;;;;;;;30.16;35.73;100549.81;5034399;28;20060;-54
2022/06/19 07:42:19;;;;;;;5.13;1.98;;;;;;;30.35;35.54;100546.28;5034731;28;20585;-54
2022/06/19 07:44:47;;;;;;;4.72;2.30;;;;;;;30.41;35.02;100540.34;5031771;28;20061;-51
2022/06/19 07:50:10;;;;;;;5.22;2.35;;;;;;;30.41;35.09;100529.66;5032764;28;20060;-55
2022/06/19 07:52:43;;;;;;;4.60;1.80;;;;;;;30.41;34.73;100529.66;5034329;28;20053;-52
2022/06/19 07:55:14;;;;;;;2.45;1.52;;;;;;;30.45;34.54;100520.34;5034041;28;20049;-52
2022/06/19 07:57:45;;;;;;;7.35;1.90;;;;;;;30.54;34.17;100508.78;5034571;28;20068;-54
2022/06/19 08:00:20;;;;;;;2.97;2.17;;;;;;;30.64;34.33;100509.59;5034011;28;20085;-55
2022/06/19 08:03:04;;;;;;;7.78;1.90;;;;;;;30.47;33.90;100502.34;5034036;28;20079;-51
2022/06/19 08:05:35;;;;;;;14.90;4.18;;;;;;;30.28;35.70;100497.91;5033043;28;20840;-52
2022/06/19 08:08:10;;;;;;;8.63;3.00;;;;;;;29.96;36.45;100492.84;5032909;28;20049;-54
2022/06/19 08:10:50;;;;;;;5.07;3.20;;;;;;;29.75;37.22;100494.88;5032882;28;20045;-52
2022/06/19 08:13:20;;;;;;;6.30;3.65;;;;;;;29.60;37.74;100502.44;5032890;28;20056;-53
2022/06/19 08:15:51;;;;;;;4.43;3.05;;;;;;;29.37;38.33;100483.16;5033774;28;20115;-51
2022/06/19 08:18:32;;;;;;;4.80;3.30;;;;;;;29.23;38.36;100475.56;5034077;28;20060;-54
2022/06/19 08:21:08;;;;;;;7.10;4.05;;;;;;;29.31;38.43;100467.69;5033621;28;20053;-53
2022/06/19 08:23:38;;;;;;;6.15;3.55;;;;;;;29.44;38.33;100470.97;5033306;28;20057;-53
2022/06/19 08:26:06;;;;;;;8.85;3.90;;;;;;;29.64;38.36;100465.59;5033572;28;20490;-50
2022/06/19 08:28:39;;;;;;;6.25;3.85;;;;;;;29.67;37.94;100460.00;5032111;28;20056;-54
2022/06/19 08:31:07;;;;;;;9.27;4.20;;;;;;;29.42;38.38;100445.34;5031658;28;20390;-51
2022/06/19 08:33:38;;;;;;;6.60;3.63;;;;;;;29.07;39.07;100441.38;5032351;28;20061;-51
2022/06/19 08:36:10;;;;;;;8.75;3.97;;;;;;;28.83;39.62;100449.75;5031522;28;20057;-54
2022/06/19 08:38:41;;;;;;;9.52;4.85;;;;;;;28.77;39.91;100447.63;5034195;28;20061;-51
2022/06/19 08:41:51;;;;;;;6.85;4.97;;;;;;;28.48;40.70;100450.19;5033941;28;20057;-51
2022/06/19 08:45:32;;;;;;;7.28;4.55;;;;;;;27.84;41.55;100446.88;5023131;28;20065;-51
2022/06/19 08:48:44;;;;;;;9.15;3.95;;;;;;;27.52;42.21;100444.19;5028481;28;20119;-51
2022/06/19 08:51:28;;;;;;;7.30;4.50;;;;;;;27.56;42.76;100440.31;5032730;28;20049;-51
2022/06/19 08:54:15;;;;;;;8.38;4.50;;;;;;;27.71;42.63;100449.72;5033896;28;20103;-54
2022/06/19 08:56:54;;;;;;;21.25;5.78;;;;;;;27.56;42.93;100449.13;5032535;28;20053;-54
2022/06/19 08:59:36;;;;;;;14.25;4.55;;;;;;;27.80;42.59;100453.44;5033644;28;20152;-53
2022/06/19 09:02:19;;;;;;;5.38;3.58;;;;;;;27.71;42.69;100448.88;5029616;28;20053;-55
2022/06/19 09:08:30;;;;;;;9.20;3.97;;;;;;;27.11;43.47;100439.66;5026114;28;20135;-50
2022/06/19 09:11:09;;;;;;;10.38;3.95;;;;;;;27.03;43.95;100441.09;5026716;28;20469;-54
2022/06/19 09:13:56;;;;;;;4.95;3.75;;;;;;;26.94;43.69;100431.19;5032724;28;20377;-54
2022/06/19 09:16:32;;;;;;;6.93;3.88;;;;;;;26.80;44.22;100418.19;5033068;28;20057;-54
2022/06/19 09:19:15;;;;;;;7.68;3.60;;;;;;;26.73;44.11;100422.31;5032825;28;20045;-51
2022/06/19 09:22:11;;;;;;;4.80;2.58;;;;;;;26.75;44.04;100411.53;5032849;28;20053;-55
2022/06/19 09:24:56;;;;;;;8.55;3.90;;;;;;;26.77;42.71;100421.09;5033059;28;20137;-51
2022/06/19 09:27:33;;;;;;;5.13;2.50;;;;;;;26.62;43.58;100420.50;5033261;28;20064;-51
2022/06/19 09:30:05;;;;;;;12.10;3.55;;;;;;;26.63;43.60;100426.69;5032135;28;20601;-51
2022/06/19 09:32:42;;;;;;;13.55;3.67;;;;;;;26.56;43.47;100434.28;5032985;28;20132;-51
2022/06/19 09:35:17;;;;;;;12.23;3.25;;;;;;;26.56;43.43;100438.78;5032676;28;20057;-51
2022/06/19 09:37:51;;;;;;;6.78;2.63;;;;;;;26.47;43.37;100440.31;5032564;28;20100;-54
2022/06/19 09:40:29;;;;;;;;;;;;;;;26.41;43.65;100438.16;5031594;28;20056;-51
2022/06/19 09:43:05;;;;;;;7.40;2.55;;;;;;;26.58;43.37;100452.78;5030788;28;19940;-51
2022/06/19 09:45:41;;;;;;;8.30;2.80;;;;;;;26.73;42.88;100443.56;5012646;28;20080;-51
2022/06/19 09:48:22;;;;;;;5.45;2.80;;;;;;;26.77;42.45;100431.72;5012049;28;20049;-53
2022/06/19 09:50:56;;;;;;;5.50;2.95;;;;;;;26.62;42.73;100435.63;5012821;28;20046;-55
2022/06/19 09:53:31;;;;;;;;;;;;;;;26.48;42.14;100430.53;5013173;28;20090;-53
2022/06/19 09:56:09;;;;;;;5.03;2.38;;;;;;;26.47;42.67;100418.22;5010255;28;19995;-55
2022/06/19 09:58:46;;;;;;;8.93;3.20;;;;;;;26.45;42.66;100420.16;5013674;28;20053;-54
2022/06/19 10:01:19;;;;;;;6.35;2.25;;;;;;;26.23;43.04;100411.19;5016405;28;20754;-53
2022/06/19 10:03:58;;;;;;;6.35;2.53;;;;;;;26.19;42.94;100404.44;5016346;28;20733;-54
2022/06/19 10:06:37;;;;;;;17.27;2.95;;;;;;;26.29;42.69;100393.91;5016119;28;20050;-51
2022/06/19 10:09:23;;;;;;;6.15;2.03;;;;;;;26.39;42.47;100379.81;4996708;28;20080;-54
2022/06/19 10:12:14;;;;;;;5.13;2.13;;;;;;;26.36;42.09;100380.06;5014243;28;20107;-54
2022/06/19 10:14:49;;;;;;;5.20;2.72;;;;;;;26.21;42.34;100378.59;5015612;28;20068;-53
2022/06/19 10:17:27;;;;;;;9.00;2.53;;;;;;;26.09;42.23;100374.25;5015151;28;20062;-51
2022/06/19 10:20:06;;;;;;;5.32;2.08;;;;;;;25.94;42.37;100375.41;5016468;28;20045;-53
2022/06/19 10:22:53;;;;;;;5.18;2.30;;;;;;;25.69;42.80;100373.84;5014847;28;20140;-55
2022/06/19 10:25:51;;;;;;;6.65;1.80;;;;;;;25.71;42.21;100377.22;5012694;28;20064;-51
2022/06/19 10:28:55;;;;;;;9.20;2.25;;;;;;;25.59;41.97;100373.66;5010834;28;20046;-52
2022/06/19 10:31:40;;;;;;;5.60;1.80;;;;;;;25.50;42.41;100394.75;5014199;28;20463;-54
2022/06/19 10:34:30;;;;;;;4.60;1.60;;;;;;;25.65;42.26;100398.88;5016149;28;20467;-52
2022/06/19 10:37:11;;;;;;;5.18;1.65;;;;;;;25.88;42.02;100399.78;5013909;28;20127;-52
2022/06/19 10:39:52;;;;;;;2.63;1.23;;;;;;;25.99;41.06;100407.78;5012818;28;20048;-54
2022/06/19 10:42:33;;;;;;;15.30;2.03;;;;;;;26.02;40.24;100418.19;5015093;28;20096;-55
2022/06/19 10:45:33;;;;;;;10.40;1.80;;;;;;;26.10;38.47;100407.81;5017379;28;20068;-53
2022/06/19 10:48:38;;;;;;;15.68;2.03;;;;;;;26.05;38.49;100402.00;5035165;28;20058;-51
2022/06/19 10:51:26;;;;;;;9.63;1.70;;;;;;;25.84;38.77;100385.91;5015618;28;20042;-51
2022/06/19 10:54:28;;;;;;;10.15;1.92;;;;;;;25.76;38.41;100389.16;5017611;28;20065;-51
2022/06/19 10:57:05;;;;;;;7.18;1.52;;;;;;;25.63;39.68;100376.94;5035818;28;20067;-52
2022/06/19 10:59:33;;;;;;;7.63;1.83;;;;;;;25.66;39.08;100384.69;5035297;28;20053;-53
2022/06/19 11:05:04;;;;;;;8.32;1.60;;;;;;;25.63;38.94;100377.78;5034505;28;20068;-54
2022/06/19 11:07:33;;;;;;;4.17;1.40;;;;;;;25.55;38.76;100371.38;5029387;28;20477;-53
2022/06/19 11:10:07;;;;;;;10.00;1.42;;;;;;;25.41;38.61;100372.38;5034804;28;20041;-53
2022/06/19 11:12:39;;;;;;;6.10;1.30;;;;;;;25.37;38.67;100357.66;5034304;28;20061;-50
2022/06/19 11:15:12;;;;;;;8.85;1.95;;;;;;;25.11;39.59;100357.81;5034881;28;20057;-53
2022/06/19 11:17:43;;;;;;;11.68;2.40;;;;;;;25.07;40.38;100356.38;5028681;28;20064;-51
2022/06/19 11:20:24;;;;;;;13.38;1.77;;;;;;;24.95;40.63;100346.63;5034905;28;20049;-55
2022/06/19 11:23:00;;;;;;;7.15;1.60;;;;;;;24.79;41.52;100343.41;5034465;28;20053;-52
2022/06/19 11:25:36;;;;;;;4.15;1.63;;;;;;;24.68;41.61;100348.66;5033038;28;20270;-51
2022/06/19 11:28:09;;;;;;;11.23;2.00;;;;;;;24.48;41.36;100336.88;5035219;28;20045;-51
2022/06/19 11:30:41;;;;;;;11.07;1.60;;;;;;;24.22;41.95;100322.78;5021756;28;20091;-52
2022/06/19 11:33:16;;;;;;;6.95;1.40;;;;;;;24.09;42.49;100324.63;5034694;28;20061;-53
2022/06/19 11:35:50;;;;;;;6.70;1.67;;;;;;;24.04;42.70;100326.75;5034386;28;20053;-53
2022/06/19 11:38:37;;;;;;;9.43;1.55;;;;;;;24.04;42.55;100310.88;5034739;28;20064;-54
2022/06/19 11:41:30;;;;;;;7.25;1.55;;;;;;;23.89;42.98;100308.31;5034647;28;20077;-54
2022/06/19 11:44:07;;;;;;;8.00;1.80;;;;;;;23.64;42.55;100310.16;5024049;28;20061;-54
2022/06/19 11:46:56;;;;;;;5.65;1.27;;;;;;;23.48;42.17;100302.41;5034514;28;20415;-51
2022/06/19 11:49:37;;;;;;;10.45;1.83;;;;;;;23.23;41.99;100304.06;5033289;28;20052;-51
2022/06/19 11:52:16;;;;;;;7.13;1.80;;;;;;;23.03;43.17;100296.63;5027474;28;20072;-51
2022/06/19 11:54:52;;;;;;;7.28;1.90;;;;;;;22.99;42.87;100297.78;5032900;28;20466;-54
2022/06/19 11:57:33;;;;;;;7.65;1.55;;;;;;;22.96;43.35;100298.00;5034546;28;20140;-54
2022/06/19 12:00:08;;;;;;;10.15;1.65;;;;;;;22.87;43.25;100311.78;5022669;28;20053;-51
2022/06/19 12:02:41;;;;;;;9.73;2.00;;;;;;;22.73;43.33;100325.03;5032311;28;20057;-51
2022/06/19 12:05:24;;;;;;;8.00;1.35;;;;;;;22.43;44.19;100296.16;5033233;28;20049;-51
2022/06/19 12:07:52;;;;;;;6.72;1.35;;;;;;;22.22;44.81;100303.66;5032914;28;20053;-51
2022/06/19 12:10:29;;;;;;;6.75;1.88;;;;;;;22.14;45.21;100293.56;5031928;28;20057;-51
2022/06/19 12:13:00;;;;;;;7.68;1.75;;;;;;;22.19;45.72;100277.44;5034287;28;20053;-54
2022/06/19 12:15:31;;;;;;;5.35;1.33;;;;;;;22.17;45.38;100289.91;5033854;28;20065;-53
2022/06/19 12:18:01;;;;;;;10.13;1.60;;;;;;;22.14;45.69;100280.38;5033944;28;20383;-52
2022/06/19 12:20:39;;;;;;;6.65;1.38;;;;;;;22.08;44.77;100282.56;5033203;28;20056;-54